Airfield :
LOGIN :

Register | Disclaimer

   EN    FR    IT 

 










Legend :    VFR   Marginal VFR   IFR   Intensive IFR   Very Intensive IFR
Visi :
Ceiling :
>= 8 km
>= 3000ft
5 to 8 km
1000 to 3000 ft
1500m to 5 km
500 to 1000 ft
800 to 1500m
200 to 500 ft
< 800m
< 200 ft
Symbols :   Thunderstorms  Fog  Heavy snow  Heavy precipitations  Wind > 20 kt
SIGMETs :     Misc.  Thunderstorms  Icing  Turbulence  Mountain Waves  Volcanic Ashes






- Airport Elevation : 247 ft
- IATA code : BLL


EKBI - Billund

CURRENT METAR :
  • 050120Z AUTO 04003KT 9999 BCFG FEW084/// 09/09 Q1014

EXPIRED METARs :
  • 050050Z AUTO VRB01KT 9999 SCT083/// 08/08 Q1015
  • 050020Z AUTO 04001KT 9999 BCFG NCD 09/08 Q1015
  • 042350Z AUTO 09001KT 9999 BCFG NCD 09/08 Q1015
  • 042320Z AUTO 00000KT 9999 BCFG NCD 09/09 Q1015
  • 042250Z AUTO 07001KT 9999 NCD 09/08 Q1015

TAF TAF EKBI
Valid from the 05 at 00:00 until the 06 at 00:00 UTC


042259Z 0500/0524 07005KT 9999 FEW040
TEMPO 0507/0513 SCT030CB



MET'MAP, your aeronautical weather chart ! - Copyright ORBIFLY December 2007 - Disclaimer

ORBIFLY MET'MAP TEAM :

Programming & Development : Alexandra Zaïnal
Concept & original design : Baudouin d'Aumeries
Assistance for programming : Marc-Olivier Méhu
Technical & hardware support : Manuel Goepfert

Contact : metmap@orbifly.com




SOURCES & CREDITS :

   NOAA